Share

Manta, Ecuador

Eloy Alfaro International (SEMT) Elev 46 ft | 0.95 °S, 80.68 °W | Change Station

Current weather conditions updated 5 minutes ago

Mostly Cloudy
Mostly Cloudy
77 °F
Feels Like 77 °F
N
5
Wind Variable Wind from SSE
Sunrise 6:19 AM
Sunset 6:24 PM
Moon Waning Gibbous

Tomorrow is forecast to be nearly the same temperature as today.

Pressure 29.89 in
Visibility 6.2 miles
Clouds Mostly Cloudy 2300 ft
Dew Point 73 °F
Humidity 89%
Rainfall 0.00 in
Snow Depth Not available.
UV 0 out of 16
Pollen Not available.
Air Quality Not available.
Flu Activity Not available.
METAR SEMT 210300Z 15004KT 9999 BKN023 25/23 Q1012

More Conditions Fewer Conditions

Pressure 29.89 in
Visibility 6.2 miles
Clouds Mostly Cloudy 2300 ft
Dew Point 73 °F
Humidity 89%
Rainfall 0.00 in
Snow Depth Not available.
UV 0 out of 16
Pollen Not available.
Air Quality Not available.
Flu Activity Not available.
METAR SEMT 210300Z 15004KT 9999 BKN023 25/23 Q1012

More Conditions Fewer Conditions

10-Day Weather Forecast

Almanac

Astronomy

Apr. 20, 2014 Rise Set
Actual Time 6:19 AM ECT 6:24 PM ECT
Civil Twilight 5:57 AM ECT 6:45 PM ECT
Nautical Twilight 5:33 AM ECT 7:09 PM ECT
Astronomical Twilight 5:08 AM ECT 7:34 PM ECT
Moon 11:32 PM ECT (4/20) 11:04 AM ECT (4/20)
Length of Visible Light 12h 47m
Length of Day
12h 05m
Tomorrow will be 0m 2s shorter.
Waning Gibbous, 64% of the Moon is Illuminated
Today
Waning Gibbous
Apr 22
Last Quarter
Apr 29
New
May 6
First Quarter
May 14
Full

Today's Extremes

Country Highs Country Lows

Community

  • Sun Pillar and Geese
    Sun Pillar and Geese
  • Showers on the Way
    Showers on the Way
  • Easter Morning Fog
    Easter Morning Fog
  • Easter Dance
    Easter Dance
  • spring skiing mount Baker WA
    spring skiing mount Baker WA

WunderPhotos

Upload Photos

1,703,534 photos uploaded!

WunderBlogs® & News

Nearby

Snow Depth

Not available.

Coastal Water Temperatures

Place Temperature
No Stations Reporting

Earthquake Activity

City Distance Mag. Time & Date
No recent earthquake activity has been reported nearby.
Minimum magnitude displayed is 2.5.

Nearby Weather Stations

Station Location Temp. Heat Index Dew Point Humidity Wind Precip. Elev Updated Type
Manantiales, Manta 75.6 °F 75 °F 72 °F 89% WNW  at  0.0 mph 0.00 in / hr 131 ft 10:05 PM ECT Normal

Show More Stations Show Fewer Stations

What do you think?

We're not finished. Please let us know what you like, what you don't like, and what you are still missing.